sensor_id;sensor_type;location;lat;lon;timestamp;temperature;humidity
2300;DHT22;1158;48.750;9.078;2023-02-15T00:01:24;-3.20;99.90
2300;DHT22;1158;48.750;9.078;2023-02-15T00:03:51;-3.20;99.90
2300;DHT22;1158;48.750;9.078;2023-02-15T00:06:19;-3.20;99.90
2300;DHT22;1158;48.750;9.078;2023-02-15T00:08:46;-3.10;99.90
2300;DHT22;1158;48.750;9.078;2023-02-15T00:11:14;-3.10;99.90
2300;DHT22;1158;48.750;9.078;2023-02-15T00:13:41;-3.10;99.90
2300;DHT22;1158;48.750;9.078;2023-02-15T00:16:10;-3.10;99.90
2300;DHT22;1158;48.750;9.078;2023-02-15T00:18:38;-3.20;99.90
2300;DHT22;1158;48.750;9.078;2023-02-15T00:21:06;-3.20;99.90
2300;DHT22;1158;48.750;9.078;2023-02-15T00:23:35;-3.20;99.90
2300;DHT22;1158;48.750;9.078;2023-02-15T00:26:06;-3.30;99.90
2300;DHT22;1158;48.750;9.078;2023-02-15T00:28:33;-3.40;99.90
2300;DHT22;1158;48.750;9.078;2023-02-15T00:31:04;-3.40;99.90
2300;DHT22;1158;48.750;9.078;2023-02-15T00:33:31;-3.40;99.90
2300;DHT22;1158;48.750;9.078;2023-02-15T00:35:58;-3.40;99.90
2300;DHT22;1158;48.750;9.078;2023-02-15T00:38:26;-3.40;99.90
2300;DHT22;1158;48.750;9.078;2023-02-15T00:40:54;-3.40;99.90
2300;DHT22;1158;48.750;9.078;2023-02-15T00:43:22;-3.30;99.90
2300;DHT22;1158;48.750;9.078;2023-02-15T00:45:48;-3.30;99.90
2300;DHT22;1158;48.750;9.078;2023-02-15T00:48:15;-3.40;99.90
2300;DHT22;1158;48.750;9.078;2023-02-15T00:50:44;-3.40;99.90
2300;DHT22;1158;48.750;9.078;2023-02-15T00:53:11;-3.40;99.90
2300;DHT22;1158;48.750;9.078;2023-02-15T00:55:38;-3.40;99.90
2300;DHT22;1158;48.750;9.078;2023-02-15T00:58:06;-3.50;99.90
2300;DHT22;1158;48.750;9.078;2023-02-15T01:00:33;-3.60;99.90
2300;DHT22;1158;48.750;9.078;2023-02-15T01:03:00;-3.50;99.90
2300;DHT22;1158;48.750;9.078;2023-02-15T01:05:27;-3.50;99.90
2300;DHT22;1158;48.750;9.078;2023-02-15T01:07:55;-3.50;99.90
2300;DHT22;1158;48.750;9.078;2023-02-15T01:10:22;-3.50;99.90
2300;DHT22;1158;48.750;9.078;2023-02-15T01:12:50;-3.50;99.90
2300;DHT22;1158;48.750;9.078;2023-02-15T01:15:19;-3.60;99.90
2300;DHT22;1158;48.750;9.078;2023-02-15T01:17:46;-3.60;99.90
2300;DHT22;1158;48.750;9.078;2023-02-15T01:20:18;-3.60;99.90
2300;DHT22;1158;48.750;9.078;2023-02-15T01:22:45;-3.40;99.90
2300;DHT22;1158;48.750;9.078;2023-02-15T01:25:12;-3.40;99.90
2300;DHT22;1158;48.750;9.078;2023-02-15T01:27:39;-3.50;99.90
2300;DHT22;1158;48.750;9.078;2023-02-15T01:30:06;-3.50;99.90
2300;DHT22;1158;48.750;9.078;2023-02-15T01:32:35;-3.50;99.90
2300;DHT22;1158;48.750;9.078;2023-02-15T01:35:02;-3.60;99.90
2300;DHT22;1158;48.750;9.078;2023-02-15T01:37:30;-3.60;99.90
2300;DHT22;1158;48.750;9.078;2023-02-15T01:39:57;-3.60;99.90
2300;DHT22;1158;48.750;9.078;2023-02-15T01:42:26;-3.70;99.90
2300;DHT22;1158;48.750;9.078;2023-02-15T01:44:54;-3.70;99.90
2300;DHT22;1158;48.750;9.078;2023-02-15T01:47:23;-3.70;99.90
2300;DHT22;1158;48.750;9.078;2023-02-15T01:50:04;-3.70;99.90
2300;DHT22;1158;48.750;9.078;2023-02-15T01:52:33;-3.70;99.90
2300;DHT22;1158;48.750;9.078;2023-02-15T01:55:02;-3.70;99.90
2300;DHT22;1158;48.750;9.078;2023-02-15T01:57:29;-3.80;99.90
2300;DHT22;1158;48.750;9.078;2023-02-15T02:00:00;-3.90;99.90
2300;DHT22;1158;48.750;9.078;2023-02-15T02:02:29;-3.90;99.90
2300;DHT22;1158;48.750;9.078;2023-02-15T02:05:00;-3.90;99.90
2300;DHT22;1158;48.750;9.078;2023-02-15T02:07:34;-3.90;99.90
2300;DHT22;1158;48.750;9.078;2023-02-15T02:10:02;-3.80;99.90
2300;DHT22;1158;48.750;9.078;2023-02-15T02:12:29;-3.70;99.90
2300;DHT22;1158;48.750;9.078;2023-02-15T02:14:56;-3.70;99.90
2300;DHT22;1158;48.750;9.078;2023-02-15T02:17:33;-3.80;99.90
2300;DHT22;1158;48.750;9.078;2023-02-15T02:20:24;-3.80;99.90
2300;DHT22;1158;48.750;9.078;2023-02-15T02:29:40;-3.90;99.90
2300;DHT22;1158;48.750;9.078;2023-02-15T02:32:27;-4.00;99.90
2300;DHT22;1158;48.750;9.078;2023-02-15T02:35:06;-4.00;99.90
2300;DHT22;1158;48.750;9.078;2023-02-15T02:37:40;-4.00;99.90
2300;DHT22;1158;48.750;9.078;2023-02-15T02:40:16;-4.00;99.90
2300;DHT22;1158;48.750;9.078;2023-02-15T02:42:49;-4.10;99.90
2300;DHT22;1158;48.750;9.078;2023-02-15T02:45:22;-4.10;99.90
2300;DHT22;1158;48.750;9.078;2023-02-15T02:47:53;-4.10;99.90
2300;DHT22;1158;48.750;9.078;2023-02-15T02:50:25;-4.10;99.90
2300;DHT22;1158;48.750;9.078;2023-02-15T02:52:54;-4.10;99.90
2300;DHT22;1158;48.750;9.078;2023-02-15T02:55:25;-4.10;99.90
2300;DHT22;1158;48.750;9.078;2023-02-15T02:57:54;-4.10;99.90
2300;DHT22;1158;48.750;9.078;2023-02-15T03:00:24;-4.20;99.90
2300;DHT22;1158;48.750;9.078;2023-02-15T03:02:55;-4.20;99.90
2300;DHT22;1158;48.750;9.078;2023-02-15T03:05:26;-4.20;99.90
2300;DHT22;1158;48.750;9.078;2023-02-15T03:07:55;-4.20;99.90
2300;DHT22;1158;48.750;9.078;2023-02-15T03:10:23;-4.30;99.90
2300;DHT22;1158;48.750;9.078;2023-02-15T03:12:51;-4.30;99.90
2300;DHT22;1158;48.750;9.078;2023-02-15T03:15:21;-4.30;99.90
2300;DHT22;1158;48.750;9.078;2023-02-15T03:17:54;-4.30;99.90
2300;DHT22;1158;48.750;9.078;2023-02-15T03:20:25;-4.30;99.90
2300;DHT22;1158;48.750;9.078;2023-02-15T03:22:58;-4.40;99.90
2300;DHT22;1158;48.750;9.078;2023-02-15T03:25:30;-4.40;99.90
2300;DHT22;1158;48.750;9.078;2023-02-15T03:28:01;-4.40;99.90
2300;DHT22;1158;48.750;9.078;2023-02-15T03:30:30;-4.40;99.90
2300;DHT22;1158;48.750;9.078;2023-02-15T03:32:58;-4.40;99.90
2300;DHT22;1158;48.750;9.078;2023-02-15T03:35:39;-4.40;99.90
2300;DHT22;1158;48.750;9.078;2023-02-15T03:38:09;-4.40;99.90
2300;DHT22;1158;48.750;9.078;2023-02-15T03:40:38;-4.50;99.90
2300;DHT22;1158;48.750;9.078;2023-02-15T03:43:28;-4.50;99.90
2300;DHT22;1158;48.750;9.078;2023-02-15T03:46:00;-4.50;99.90
2300;DHT22;1158;48.750;9.078;2023-02-15T03:48:33;-4.50;99.90
2300;DHT22;1158;48.750;9.078;2023-02-15T03:51:05;-4.50;99.90
2300;DHT22;1158;48.750;9.078;2023-02-15T03:53:51;-4.50;99.90
2300;DHT22;1158;48.750;9.078;2023-02-15T03:56:18;-4.60;99.90
2300;DHT22;1158;48.750;9.078;2023-02-15T03:58:45;-4.60;99.90
2300;DHT22;1158;48.750;9.078;2023-02-15T04:01:34;-4.60;99.90
2300;DHT22;1158;48.750;9.078;2023-02-15T04:04:21;-4.60;99.90
2300;DHT22;1158;48.750;9.078;2023-02-15T04:06:50;-4.60;99.90
2300;DHT22;1158;48.750;9.078;2023-02-15T04:09:16;-4.60;99.90
2300;DHT22;1158;48.750;9.078;2023-02-15T04:12:01;-4.50;99.90
2300;DHT22;1158;48.750;9.078;2023-02-15T04:14:27;-4.60;99.90
2300;DHT22;1158;48.750;9.078;2023-02-15T04:17:12;-4.60;99.90
2300;DHT22;1158;48.750;9.078;2023-02-15T04:19:39;-4.70;99.90
2300;DHT22;1158;48.750;9.078;2023-02-15T04:22:24;-4.80;99.90
2300;DHT22;1158;48.750;9.078;2023-02-15T04:25:08;-4.80;99.90
2300;DHT22;1158;48.750;9.078;2023-02-15T04:27:38;-4.80;99.90
2300;DHT22;1158;48.750;9.078;2023-02-15T04:30:06;-4.80;99.90
2300;DHT22;1158;48.750;9.078;2023-02-15T04:32:33;-4.90;99.90
2300;DHT22;1158;48.750;9.078;2023-02-15T04:35:00;-4.80;99.90
2300;DHT22;1158;48.750;9.078;2023-02-15T04:37:28;-4.80;99.90
2300;DHT22;1158;48.750;9.078;2023-02-15T04:39:55;-4.80;99.90
2300;DHT22;1158;48.750;9.078;2023-02-15T04:42:24;-4.80;99.90
2300;DHT22;1158;48.750;9.078;2023-02-15T04:44:50;-4.80;99.90
2300;DHT22;1158;48.750;9.078;2023-02-15T04:47:17;-4.80;99.90
2300;DHT22;1158;48.750;9.078;2023-02-15T04:49:44;-4.80;99.90
2300;DHT22;1158;48.750;9.078;2023-02-15T04:52:11;-4.90;99.90
2300;DHT22;1158;48.750;9.078;2023-02-15T04:54:39;-4.90;99.90
2300;DHT22;1158;48.750;9.078;2023-02-15T04:57:06;-4.90;99.90
2300;DHT22;1158;48.750;9.078;2023-02-15T04:59:33;-4.80;99.90
2300;DHT22;1158;48.750;9.078;2023-02-15T05:02:00;-4.80;99.90
2300;DHT22;1158;48.750;9.078;2023-02-15T05:04:27;-4.80;99.90
2300;DHT22;1158;48.750;9.078;2023-02-15T05:06:54;-4.70;99.90
2300;DHT22;1158;48.750;9.078;2023-02-15T05:09:21;-4.80;99.90
2300;DHT22;1158;48.750;9.078;2023-02-15T05:11:49;-4.80;99.90
2300;DHT22;1158;48.750;9.078;2023-02-15T05:14:15;-4.80;99.90
2300;DHT22;1158;48.750;9.078;2023-02-15T05:16:42;-4.90;99.90
2300;DHT22;1158;48.750;9.078;2023-02-15T05:19:09;-4.90;99.90
2300;DHT22;1158;48.750;9.078;2023-02-15T05:21:36;-5.00;99.90
2300;DHT22;1158;48.750;9.078;2023-02-15T05:24:03;-5.00;99.90
2300;DHT22;1158;48.750;9.078;2023-02-15T05:26:51;-5.10;99.90
2300;DHT22;1158;48.750;9.078;2023-02-15T05:29:35;-5.10;99.90
2300;DHT22;1158;48.750;9.078;2023-02-15T05:32:02;-5.10;99.90
2300;DHT22;1158;48.750;9.078;2023-02-15T05:34:29;-5.00;99.90
2300;DHT22;1158;48.750;9.078;2023-02-15T05:36:56;-5.00;99.90
2300;DHT22;1158;48.750;9.078;2023-02-15T05:39:23;-5.00;99.90
2300;DHT22;1158;48.750;9.078;2023-02-15T05:41:51;-5.00;99.90
2300;DHT22;1158;48.750;9.078;2023-02-15T05:44:18;-5.00;99.90
2300;DHT22;1158;48.750;9.078;2023-02-15T05:46:44;-5.00;99.90
2300;DHT22;1158;48.750;9.078;2023-02-15T05:49:11;-5.10;99.90
2300;DHT22;1158;48.750;9.078;2023-02-15T05:51:38;-5.10;99.90
2300;DHT22;1158;48.750;9.078;2023-02-15T05:54:04;-5.10;99.90
2300;DHT22;1158;48.750;9.078;2023-02-15T05:56:31;-5.10;99.90
2300;DHT22;1158;48.750;9.078;2023-02-15T05:58:59;-5.00;99.90
2300;DHT22;1158;48.750;9.078;2023-02-15T06:01:26;-5.10;99.90
2300;DHT22;1158;48.750;9.078;2023-02-15T06:03:53;-5.10;99.90
2300;DHT22;1158;48.750;9.078;2023-02-15T06:06:21;-5.10;99.90
2300;DHT22;1158;48.750;9.078;2023-02-15T06:08:48;-5.10;99.90
2300;DHT22;1158;48.750;9.078;2023-02-15T06:11:14;-5.10;99.90
2300;DHT22;1158;48.750;9.078;2023-02-15T06:13:41;-5.10;99.90
2300;DHT22;1158;48.750;9.078;2023-02-15T06:16:09;-5.10;99.90
2300;DHT22;1158;48.750;9.078;2023-02-15T06:18:41;-5.00;99.90
2300;DHT22;1158;48.750;9.078;2023-02-15T06:21:09;-5.10;99.90
2300;DHT22;1158;48.750;9.078;2023-02-15T06:23:35;-5.10;99.90
2300;DHT22;1158;48.750;9.078;2023-02-15T06:26:03;-5.10;99.90
2300;DHT22;1158;48.750;9.078;2023-02-15T06:28:30;-5.10;99.90
2300;DHT22;1158;48.750;9.078;2023-02-15T06:30:56;-5.10;99.90
2300;DHT22;1158;48.750;9.078;2023-02-15T06:33:25;-5.10;99.90
2300;DHT22;1158;48.750;9.078;2023-02-15T06:35:51;-5.00;99.90
2300;DHT22;1158;48.750;9.078;2023-02-15T06:38:18;-5.10;99.90
2300;DHT22;1158;48.750;9.078;2023-02-15T06:40:45;-5.00;99.90
2300;DHT22;1158;48.750;9.078;2023-02-15T06:43:11;-5.00;99.90
2300;DHT22;1158;48.750;9.078;2023-02-15T06:45:38;-4.90;99.90
2300;DHT22;1158;48.750;9.078;2023-02-15T06:48:05;-4.90;99.90
2300;DHT22;1158;48.750;9.078;2023-02-15T06:50:34;-4.90;99.90
2300;DHT22;1158;48.750;9.078;2023-02-15T06:53:01;-4.90;99.90
2300;DHT22;1158;48.750;9.078;2023-02-15T06:55:28;-4.80;99.90
2300;DHT22;1158;48.750;9.078;2023-02-15T06:57:55;-4.80;99.90
2300;DHT22;1158;48.750;9.078;2023-02-15T07:00:22;-4.60;99.90
2300;DHT22;1158;48.750;9.078;2023-02-15T07:02:53;-4.40;99.90
2300;DHT22;1158;48.750;9.078;2023-02-15T07:05:21;-4.20;99.90
2300;DHT22;1158;48.750;9.078;2023-02-15T07:07:49;-3.90;99.90
2300;DHT22;1158;48.750;9.078;2023-02-15T07:10:16;-3.50;99.90
2300;DHT22;1158;48.750;9.078;2023-02-15T07:12:42;-3.00;99.90
2300;DHT22;1158;48.750;9.078;2023-02-15T07:15:10;-2.80;99.90
2300;DHT22;1158;48.750;9.078;2023-02-15T07:17:37;-2.00;99.90
2300;DHT22;1158;48.750;9.078;2023-02-15T07:20:06;-1.20;99.90
2300;DHT22;1158;48.750;9.078;2023-02-15T07:22:34;0.10;99.90
2300;DHT22;1158;48.750;9.078;2023-02-15T07:25:03;1.00;99.90
2300;DHT22;1158;48.750;9.078;2023-02-15T07:27:31;1.80;99.90
2300;DHT22;1158;48.750;9.078;2023-02-15T07:29:57;2.90;99.90
2300;DHT22;1158;48.750;9.078;2023-02-15T07:32:27;3.00;99.90
2300;DHT22;1158;48.750;9.078;2023-02-15T07:34:55;3.10;99.90
2300;DHT22;1158;48.750;9.078;2023-02-15T07:37:22;3.30;99.90
2300;DHT22;1158;48.750;9.078;2023-02-15T07:39:48;3.40;99.90
2300;DHT22;1158;48.750;9.078;2023-02-15T07:42:16;3.60;99.90
2300;DHT22;1158;48.750;9.078;2023-02-15T07:44:45;3.60;99.90
2300;DHT22;1158;48.750;9.078;2023-02-15T07:47:14;3.80;99.90
2300;DHT22;1158;48.750;9.078;2023-02-15T07:49:42;4.70;99.90
2300;DHT22;1158;48.750;9.078;2023-02-15T07:52:08;5.10;99.90
2300;DHT22;1158;48.750;9.078;2023-02-15T07:54:35;5.60;99.90
2300;DHT22;1158;48.750;9.078;2023-02-15T07:57:02;6.10;99.90
2300;DHT22;1158;48.750;9.078;2023-02-15T07:59:30;6.00;99.90
2300;DHT22;1158;48.750;9.078;2023-02-15T08:01:57;5.80;99.90
2300;DHT22;1158;48.750;9.078;2023-02-15T08:04:24;6.30;99.90
2300;DHT22;1158;48.750;9.078;2023-02-15T08:06:52;7.00;99.90
2300;DHT22;1158;48.750;9.078;2023-02-15T08:09:20;7.00;99.90
2300;DHT22;1158;48.750;9.078;2023-02-15T08:11:47;7.20;99.90
2300;DHT22;1158;48.750;9.078;2023-02-15T08:14:15;8.10;99.90
2300;DHT22;1158;48.750;9.078;2023-02-15T08:16:44;8.80;99.40
2300;DHT22;1158;48.750;9.078;2023-02-15T08:19:13;9.40;98.70
2300;DHT22;1158;48.750;9.078;2023-02-15T08:21:41;10.10;97.40
2300;DHT22;1158;48.750;9.078;2023-02-15T08:24:10;10.40;96.30
2300;DHT22;1158;48.750;9.078;2023-02-15T08:26:38;11.10;95.10
2300;DHT22;1158;48.750;9.078;2023-02-15T08:29:05;11.60;95.00
2300;DHT22;1158;48.750;9.078;2023-02-15T08:31:33;12.60;94.10
2300;DHT22;1158;48.750;9.078;2023-02-15T08:34:04;13.40;92.60
2300;DHT22;1158;48.750;9.078;2023-02-15T08:36:32;13.30;91.60
2300;DHT22;1158;48.750;9.078;2023-02-15T08:39:00;13.20;91.90
2300;DHT22;1158;48.750;9.078;2023-02-15T08:41:29;13.30;91.70
2300;DHT22;1158;48.750;9.078;2023-02-15T08:43:57;13.70;91.30
2300;DHT22;1158;48.750;9.078;2023-02-15T08:46:26;13.60;91.20
2300;DHT22;1158;48.750;9.078;2023-02-15T08:48:53;14.00;91.00
2300;DHT22;1158;48.750;9.078;2023-02-15T08:51:22;14.20;91.10
2300;DHT22;1158;48.750;9.078;2023-02-15T08:53:51;14.60;90.10
2300;DHT22;1158;48.750;9.078;2023-02-15T08:56:20;15.20;90.30
2300;DHT22;1158;48.750;9.078;2023-02-15T08:58:47;14.80;90.20
2300;DHT22;1158;48.750;9.078;2023-02-15T09:01:15;15.10;90.20
2300;DHT22;1158;48.750;9.078;2023-02-15T09:03:44;15.00;89.70
2300;DHT22;1158;48.750;9.078;2023-02-15T09:06:11;15.00;90.50
2300;DHT22;1158;48.750;9.078;2023-02-15T09:08:40;15.30;90.20
2300;DHT22;1158;48.750;9.078;2023-02-15T09:11:09;15.90;88.60
2300;DHT22;1158;48.750;9.078;2023-02-15T09:13:36;15.50;89.00
2300;DHT22;1158;48.750;9.078;2023-02-15T09:16:05;15.50;88.90
2300;DHT22;1158;48.750;9.078;2023-02-15T09:18:34;15.80;88.50
2300;DHT22;1158;48.750;9.078;2023-02-15T09:21:07;15.80;88.50
2300;DHT22;1158;48.750;9.078;2023-02-15T09:23:34;16.20;88.50
2300;DHT22;1158;48.750;9.078;2023-02-15T09:26:04;16.30;87.10
2300;DHT22;1158;48.750;9.078;2023-02-15T09:28:31;16.50;87.10
2300;DHT22;1158;48.750;9.078;2023-02-15T09:31:05;16.60;87.10
2300;DHT22;1158;48.750;9.078;2023-02-15T09:33:33;16.80;86.90
2300;DHT22;1158;48.750;9.078;2023-02-15T09:36:01;16.30;86.70
2300;DHT22;1158;48.750;9.078;2023-02-15T09:38:28;16.90;87.20
2300;DHT22;1158;48.750;9.078;2023-02-15T09:41:04;17.30;89.50
2300;DHT22;1158;48.750;9.078;2023-02-15T09:43:36;17.50;86.50
2300;DHT22;1158;48.750;9.078;2023-02-15T09:46:17;17.00;86.00
2300;DHT22;1158;48.750;9.078;2023-02-15T09:48:51;16.60;86.30
2300;DHT22;1158;48.750;9.078;2023-02-15T09:51:48;16.70;86.40
2300;DHT22;1158;48.750;9.078;2023-02-15T09:54:28;16.70;85.20
2300;DHT22;1158;48.750;9.078;2023-02-15T09:57:05;16.80;84.50
2300;DHT22;1158;48.750;9.078;2023-02-15T09:59:40;16.70;85.90
2300;DHT22;1158;48.750;9.078;2023-02-15T10:02:23;16.90;84.90
2300;DHT22;1158;48.750;9.078;2023-02-15T10:05:01;17.00;84.60
2300;DHT22;1158;48.750;9.078;2023-02-15T10:07:50;17.10;84.70
2300;DHT22;1158;48.750;9.078;2023-02-15T10:10:32;16.40;85.40
2300;DHT22;1158;48.750;9.078;2023-02-15T10:13:15;16.00;85.70
2300;DHT22;1158;48.750;9.078;2023-02-15T10:15:52;15.90;86.60
2300;DHT22;1158;48.750;9.078;2023-02-15T10:18:43;15.50;88.30
2300;DHT22;1158;48.750;9.078;2023-02-15T10:21:21;15.20;88.70
2300;DHT22;1158;48.750;9.078;2023-02-15T10:24:03;15.30;88.10
2300;DHT22;1158;48.750;9.078;2023-02-15T10:26:40;15.20;88.30
2300;DHT22;1158;48.750;9.078;2023-02-15T10:29:18;15.40;88.00
2300;DHT22;1158;48.750;9.078;2023-02-15T10:31:49;15.40;88.20
2300;DHT22;1158;48.750;9.078;2023-02-15T10:34:20;15.30;88.90
2300;DHT22;1158;48.750;9.078;2023-02-15T10:37:10;15.40;88.10
2300;DHT22;1158;48.750;9.078;2023-02-15T10:39:48;15.20;88.50
2300;DHT22;1158;48.750;9.078;2023-02-15T10:42:27;15.10;88.30
2300;DHT22;1158;48.750;9.078;2023-02-15T10:45:09;15.10;88.40
2300;DHT22;1158;48.750;9.078;2023-02-15T10:47:51;15.00;89.40
2300;DHT22;1158;48.750;9.078;2023-02-15T10:50:33;14.80;89.70
2300;DHT22;1158;48.750;9.078;2023-02-15T10:53:19;14.70;89.80
2300;DHT22;1158;48.750;9.078;2023-02-15T10:55:55;14.40;90.20
2300;DHT22;1158;48.750;9.078;2023-02-15T10:58:32;14.60;90.10
2300;DHT22;1158;48.750;9.078;2023-02-15T11:01:10;14.90;90.10
2300;DHT22;1158;48.750;9.078;2023-02-15T11:03:51;15.60;88.30
2300;DHT22;1158;48.750;9.078;2023-02-15T11:06:22;16.00;88.90
2300;DHT22;1158;48.750;9.078;2023-02-15T11:08:55;16.40;87.70
2300;DHT22;1158;48.750;9.078;2023-02-15T11:11:26;17.00;85.20
2300;DHT22;1158;48.750;9.078;2023-02-15T11:13:57;17.00;85.90
2300;DHT22;1158;48.750;9.078;2023-02-15T11:16:29;17.30;84.60
2300;DHT22;1158;48.750;9.078;2023-02-15T11:19:01;17.60;83.80
2300;DHT22;1158;48.750;9.078;2023-02-15T11:21:33;17.80;84.00
2300;DHT22;1158;48.750;9.078;2023-02-15T11:24:09;18.00;82.80
2300;DHT22;1158;48.750;9.078;2023-02-15T11:26:41;18.30;82.30
2300;DHT22;1158;48.750;9.078;2023-02-15T11:29:12;18.10;82.40
2300;DHT22;1158;48.750;9.078;2023-02-15T11:31:44;17.90;83.50
2300;DHT22;1158;48.750;9.078;2023-02-15T11:34:17;18.00;82.70
2300;DHT22;1158;48.750;9.078;2023-02-15T11:36:51;18.40;82.10
2300;DHT22;1158;48.750;9.078;2023-02-15T11:39:20;18.40;82.10
2300;DHT22;1158;48.750;9.078;2023-02-15T11:41:52;18.30;81.20
2300;DHT22;1158;48.750;9.078;2023-02-15T11:44:23;18.00;81.90
2300;DHT22;1158;48.750;9.078;2023-02-15T11:46:53;17.90;82.70
2300;DHT22;1158;48.750;9.078;2023-02-15T11:49:23;18.00;82.50
2300;DHT22;1158;48.750;9.078;2023-02-15T11:51:56;18.20;82.80
2300;DHT22;1158;48.750;9.078;2023-02-15T11:54:26;18.20;82.20
2300;DHT22;1158;48.750;9.078;2023-02-15T11:56:55;18.40;82.40
2300;DHT22;1158;48.750;9.078;2023-02-15T11:59:28;18.70;80.50
2300;DHT22;1158;48.750;9.078;2023-02-15T12:01:57;18.40;81.50
2300;DHT22;1158;48.750;9.078;2023-02-15T12:04:28;18.30;80.90
2300;DHT22;1158;48.750;9.078;2023-02-15T12:06:59;18.30;81.40
2300;DHT22;1158;48.750;9.078;2023-02-15T12:09:33;18.30;82.20
2300;DHT22;1158;48.750;9.078;2023-02-15T12:12:21;18.10;81.10
2300;DHT22;1158;48.750;9.078;2023-02-15T12:14:50;17.90;81.80
2300;DHT22;1158;48.750;9.078;2023-02-15T12:17:20;17.90;82.30
2300;DHT22;1158;48.750;9.078;2023-02-15T12:19:47;18.10;81.50
2300;DHT22;1158;48.750;9.078;2023-02-15T12:22:22;17.90;85.90
2300;DHT22;1158;48.750;9.078;2023-02-15T12:24:52;18.10;81.90
2300;DHT22;1158;48.750;9.078;2023-02-15T12:27:21;17.90;83.20
2300;DHT22;1158;48.750;9.078;2023-02-15T12:29:51;18.00;84.00
2300;DHT22;1158;48.750;9.078;2023-02-15T12:32:23;18.00;82.70
2300;DHT22;1158;48.750;9.078;2023-02-15T12:34:51;18.00;82.80
2300;DHT22;1158;48.750;9.078;2023-02-15T12:37:23;18.20;81.60
2300;DHT22;1158;48.750;9.078;2023-02-15T12:39:55;18.20;82.30
2300;DHT22;1158;48.750;9.078;2023-02-15T12:42:22;18.20;82.40
2300;DHT22;1158;48.750;9.078;2023-02-15T12:44:55;18.10;81.60
2300;DHT22;1158;48.750;9.078;2023-02-15T12:47:23;17.70;82.50
2300;DHT22;1158;48.750;9.078;2023-02-15T12:50:10;18.00;83.50
2300;DHT22;1158;48.750;9.078;2023-02-15T12:52:42;18.10;82.30
2300;DHT22;1158;48.750;9.078;2023-02-15T14:09:40;20.90;76.00
2300;DHT22;1158;48.750;9.078;2023-02-15T14:12:35;20.40;75.50
2300;DHT22;1158;48.750;9.078;2023-02-15T14:15:18;19.40;76.00
2300;DHT22;1158;48.750;9.078;2023-02-15T14:48:46;22.00;68.80
2300;DHT22;1158;48.750;9.078;2023-02-15T14:57:27;22.90;68.20
2300;DHT22;1158;48.750;9.078;2023-02-15T14:59:57;23.10;65.50
2300;DHT22;1158;48.750;9.078;2023-02-15T15:02:26;23.20;65.80
2300;DHT22;1158;48.750;9.078;2023-02-15T15:05:00;23.30;65.00
2300;DHT22;1158;48.750;9.078;2023-02-15T15:23:46;21.60;62.80
2300;DHT22;1158;48.750;9.078;2023-02-15T15:26:28;21.20;60.10
2300;DHT22;1158;48.750;9.078;2023-02-15T15:28:57;20.70;59.60
2300;DHT22;1158;48.750;9.078;2023-02-15T15:31:47;19.70;61.10
2300;DHT22;1158;48.750;9.078;2023-02-15T15:34:45;20.20;61.40
2300;DHT22;1158;48.750;9.078;2023-02-15T15:37:51;20.30;60.10
2300;DHT22;1158;48.750;9.078;2023-02-15T15:46:49;18.90;62.60
2300;DHT22;1158;48.750;9.078;2023-02-15T15:49:21;17.40;64.50
2300;DHT22;1158;48.750;9.078;2023-02-15T15:51:48;16.20;67.30
2300;DHT22;1158;48.750;9.078;2023-02-15T15:54:18;15.60;69.00
2300;DHT22;1158;48.750;9.078;2023-02-15T16:05:39;13.70;73.60
2300;DHT22;1158;48.750;9.078;2023-02-15T16:23:32;13.40;74.50
2300;DHT22;1158;48.750;9.078;2023-02-15T16:26:10;11.60;80.80
2300;DHT22;1158;48.750;9.078;2023-02-15T16:28:39;10.80;81.20
2300;DHT22;1158;48.750;9.078;2023-02-15T16:31:07;10.30;83.40
2300;DHT22;1158;48.750;9.078;2023-02-15T16:33:39;10.10;85.80
2300;DHT22;1158;48.750;9.078;2023-02-15T16:36:10;9.70;86.00
2300;DHT22;1158;48.750;9.078;2023-02-15T16:39:07;9.20;88.00
2300;DHT22;1158;48.750;9.078;2023-02-15T16:41:35;8.90;89.00
2300;DHT22;1158;48.750;9.078;2023-02-15T16:44:06;8.50;90.10
2300;DHT22;1158;48.750;9.078;2023-02-15T16:46:36;8.10;90.80
2300;DHT22;1158;48.750;9.078;2023-02-15T16:49:06;7.90;91.20
2300;DHT22;1158;48.750;9.078;2023-02-15T16:51:35;7.60;91.30
2300;DHT22;1158;48.750;9.078;2023-02-15T16:54:08;7.30;91.90
2300;DHT22;1158;48.750;9.078;2023-02-15T16:56:39;7.10;92.50
2300;DHT22;1158;48.750;9.078;2023-02-15T16:59:18;7.00;93.10
2300;DHT22;1158;48.750;9.078;2023-02-15T17:01:46;6.70;93.40
2300;DHT22;1158;48.750;9.078;2023-02-15T17:04:26;6.50;93.90
2300;DHT22;1158;48.750;9.078;2023-02-15T17:07:03;6.30;94.50
2300;DHT22;1158;48.750;9.078;2023-02-15T17:09:33;6.00;95.20
2300;DHT22;1158;48.750;9.078;2023-02-15T17:12:00;5.80;95.90
2300;DHT22;1158;48.750;9.078;2023-02-15T17:14:29;5.60;96.70
2300;DHT22;1158;48.750;9.078;2023-02-15T17:17:00;5.40;96.90
2300;DHT22;1158;48.750;9.078;2023-02-15T17:19:30;5.50;99.60
2300;DHT22;1158;48.750;9.078;2023-02-15T17:21:59;5.50;97.70
2300;DHT22;1158;48.750;9.078;2023-02-15T17:24:37;5.30;97.60
2300;DHT22;1158;48.750;9.078;2023-02-15T17:27:10;5.10;97.90
2300;DHT22;1158;48.750;9.078;2023-02-15T17:29:40;5.00;98.40
2300;DHT22;1158;48.750;9.078;2023-02-15T17:32:16;4.80;98.70
2300;DHT22;1158;48.750;9.078;2023-02-15T17:34:59;4.60;99.20
2300;DHT22;1158;48.750;9.078;2023-02-15T17:37:43;4.40;99.80
2300;DHT22;1158;48.750;9.078;2023-02-15T17:40:19;4.20;99.90
2300;DHT22;1158;48.750;9.078;2023-02-15T17:42:46;4.10;99.90
2300;DHT22;1158;48.750;9.078;2023-02-15T17:45:13;4.00;99.90
2300;DHT22;1158;48.750;9.078;2023-02-15T17:47:40;3.90;99.90
2300;DHT22;1158;48.750;9.078;2023-02-15T17:50:10;3.80;99.90
2300;DHT22;1158;48.750;9.078;2023-02-15T17:52:42;3.60;99.90
2300;DHT22;1158;48.750;9.078;2023-02-15T17:55:13;3.40;99.90
2300;DHT22;1158;48.750;9.078;2023-02-15T17:58:01;3.40;99.90
2300;DHT22;1158;48.750;9.078;2023-02-15T18:00:28;3.30;99.90
2300;DHT22;1158;48.750;9.078;2023-02-15T18:03:13;3.10;99.90
2300;DHT22;1158;48.750;9.078;2023-02-15T18:05:57;3.00;99.90
2300;DHT22;1158;48.750;9.078;2023-02-15T18:08:42;2.80;99.90
2300;DHT22;1158;48.750;9.078;2023-02-15T18:11:26;2.70;99.90
2300;DHT22;1158;48.750;9.078;2023-02-15T18:14:00;2.50;99.90
2300;DHT22;1158;48.750;9.078;2023-02-15T18:16:30;2.50;99.90
2300;DHT22;1158;48.750;9.078;2023-02-15T18:18:58;2.40;99.90
2300;DHT22;1158;48.750;9.078;2023-02-15T18:21:25;2.30;99.90
2300;DHT22;1158;48.750;9.078;2023-02-15T18:23:52;2.10;99.90
2300;DHT22;1158;48.750;9.078;2023-02-15T18:26:21;2.10;99.90
2300;DHT22;1158;48.750;9.078;2023-02-15T18:28:48;1.90;99.90
2300;DHT22;1158;48.750;9.078;2023-02-15T18:31:18;1.90;99.90
2300;DHT22;1158;48.750;9.078;2023-02-15T18:33:47;1.80;99.90
2300;DHT22;1158;48.750;9.078;2023-02-15T18:36:18;1.70;99.90
2300;DHT22;1158;48.750;9.078;2023-02-15T18:38:46;1.70;99.90
2300;DHT22;1158;48.750;9.078;2023-02-15T18:41:16;1.60;99.90
2300;DHT22;1158;48.750;9.078;2023-02-15T18:43:43;2.20;99.90
2300;DHT22;1158;48.750;9.078;2023-02-15T18:46:10;4.40;99.90
2300;DHT22;1158;48.750;9.078;2023-02-15T18:48:38;3.70;99.90
2300;DHT22;1158;48.750;9.078;2023-02-15T18:51:05;3.00;99.90
2300;DHT22;1158;48.750;9.078;2023-02-15T18:53:40;2.50;99.90
2300;DHT22;1158;48.750;9.078;2023-02-15T18:56:08;2.10;99.90
2300;DHT22;1158;48.750;9.078;2023-02-15T18:58:37;1.80;99.90
2300;DHT22;1158;48.750;9.078;2023-02-15T19:01:11;1.50;99.90
2300;DHT22;1158;48.750;9.078;2023-02-15T19:03:43;1.30;99.90
2300;DHT22;1158;48.750;9.078;2023-02-15T19:06:12;1.20;99.90
2300;DHT22;1158;48.750;9.078;2023-02-15T19:08:41;1.10;99.90
2300;DHT22;1158;48.750;9.078;2023-02-15T19:11:12;1.00;99.90
2300;DHT22;1158;48.750;9.078;2023-02-15T19:13:40;0.90;99.90
2300;DHT22;1158;48.750;9.078;2023-02-15T19:16:11;0.70;99.90